Time;durP1;ratioP1;P1;durP2;ratioP2;P2;SDS_P1;SDS_P2;PMS_P1;PMS_P2;Temp;Humidity;BMP_temperature;BMP_pressure;BME280_temperature;BME280_humidity;BME280_pressure;Samples;Min_cycle;Max_cycle;Signal;HPM_P1;HPM_P2
2021/08/24 00:00:27;;;;;;;;;;;;;;;;;;5080832;28;19919;-70
2021/08/24 00:03:11;;;;;;;;;;;;;;;;;;5075742;28;19935;-70
2021/08/24 00:05:55;;;;;;;;;;;;;;;;;;5081017;28;19920;-71
2021/08/24 00:08:41;;;;;;;;;;;;;;;;;;5080595;28;19919;-70
2021/08/24 00:11:26;;;;;;;;;;;;;;;;;;5080517;28;20307;-70
2021/08/24 00:14:10;;;;;;;;;;;;;;;;;;5080439;28;20419;-71
2021/08/24 00:16:55;;;;;;;;;;;;;;;;;;5080363;28;20395;-70
2021/08/24 00:19:39;;;;;;;;;;;;;;;;;;5086070;28;19920;-70
2021/08/24 00:22:25;;;;;;;;;;;;;;;;;;5080082;28;19937;-70
2021/08/24 00:25:09;;;;;;;;;;;;;;;;;;5099990;28;19919;-71
2021/08/24 00:27:53;;;;;;;;;;;;;;;;;;5100339;28;19923;-72
2021/08/24 00:30:38;;;;;;;;;;;;;;;;;;5100245;28;19935;-72
2021/08/24 00:33:22;;;;;;;;;;;;;;;;;;5090286;28;19923;-73
2021/08/24 00:36:07;;;;;;;;;;;;;;;;;;5100278;28;19925;-72
2021/08/24 00:38:51;;;;;;;;;;;;;;;;;;5089972;28;19923;-72
2021/08/24 00:41:36;;;;;;;;;;;;;;;;;;5094090;28;20478;-72
2021/08/24 00:44:20;;;;;;;;;;;;;;;;;;5098716;28;19919;-72
2021/08/24 00:47:04;;;;;;;;;;;;;;;;;;5097867;28;19974;-72
2021/08/24 00:49:49;;;;;;;;;;;;;;;;;;5095561;28;19919;-72
2021/08/24 00:52:33;;;;;;;;;;;;;;;;;;5096482;28;20415;-70
2021/08/24 00:55:17;;;;;;;;;;;;;;;;;;5092170;28;19935;-70
2021/08/24 00:58:02;;;;;;;;;;;;;;;;;;5085890;28;19920;-70
2021/08/24 01:00:46;;;;;;;;;;;;;;;;;;5098561;28;20553;-70
2021/08/24 01:03:34;;;;;;;;;;;;;;;;;;5094189;28;19930;-68
2021/08/24 01:06:18;;;;;;;;;;;;;;;;;;5099904;28;20287;-68
2021/08/24 01:09:02;;;;;;;;;;;;;;;;;;5099745;28;19919;-68
2021/08/24 01:11:47;;;;;;;;;;;;;;;;;;5098776;28;19923;-68
2021/08/24 01:14:31;;;;;;;;;;;;;;;;;;5099630;28;19923;-68
2021/08/24 01:17:15;;;;;;;;;;;;;;;;;;5099695;28;19926;-68
2021/08/24 01:20:00;;;;;;;;;;;;;;;;;;5099551;28;19919;-68
2021/08/24 01:22:44;;;;;;;;;;;;;;;;;;5095952;28;19919;-68
2021/08/24 01:25:34;;;;;;;;;;;;;;;;;;5098945;28;19919;-68
2021/08/24 01:28:19;;;;;;;;;;;;;;;;;;5099507;28;19923;-68
2021/08/24 01:31:03;;;;;;;;;;;;;;;;;;5099333;28;19920;-68
2021/08/24 01:33:48;;;;;;;;;;;;;;;;;;5092821;28;19923;-68
2021/08/24 01:36:32;;;;;;;;;;;;;;;;;;5099585;28;19919;-70
2021/08/24 01:39:16;;;;;;;;;;;;;;;;;;5099386;28;19919;-70
2021/08/24 01:42:00;;;;;;;;;;;;;;;;;;5097459;28;19919;-69
2021/08/24 01:44:45;;;;;;;;;;;;;;;;;;5085286;28;19919;-70
2021/08/24 01:47:29;;;;;;;;;;;;;;;;;;5096631;28;20394;-70
2021/08/24 01:50:13;;;;;;;;;;;;;;;;;;5094404;28;20289;-70
2021/08/24 01:52:57;;;;;;;;;;;;;;;;;;5091793;28;19923;-70
2021/08/24 01:55:42;;;;;;;;;;;;;;;;;;5095860;28;20296;-70
2021/08/24 01:58:26;;;;;;;;;;;;;;;;;;5099242;28;19919;-71
2021/08/24 02:01:10;;;;;;;;;;;;;;;;;;5089593;28;19920;-70
2021/08/24 02:03:54;;;;;;;;;;;;;;;;;;5100963;28;19962;-70
2021/08/24 02:06:38;;;;;;;;;;;;;;;;;;5096801;28;19920;-70
2021/08/24 02:09:22;;;;;;;;;;;;;;;;;;5089782;28;19919;-70
2021/08/24 02:12:07;;;;;;;;;;;;;;;;;;5099200;28;19922;-71
2021/08/24 02:14:51;;;;;;;;;;;;;;;;;;5102197;28;20067;-69
2021/08/24 02:17:35;;;;;;;;;;;;;;;;;;5102391;28;19919;-70
2021/08/24 02:20:19;;;;;;;;;;;;;;;;;;5102084;28;19919;-70
2021/08/24 02:23:04;;;;;;;;;;;;;;;;;;5097975;28;19919;-71
2021/08/24 02:25:48;;;;;;;;;;;;;;;;;;5096506;28;19923;-70
2021/08/24 02:28:32;;;;;;;;;;;;;;;;;;5101832;28;20398;-70
2021/08/24 02:31:16;;;;;;;;;;;;;;;;;;5099545;28;19995;-70
2021/08/24 02:34:00;;;;;;;;;;;;;;;;;;5100023;28;20394;-70
2021/08/24 02:36:45;;;;;;;;;;;;;;;;;;5096726;28;19919;-70
2021/08/24 02:39:29;;;;;;;;;;;;;;;;;;5091013;28;19919;-70
2021/08/24 02:42:13;;;;;;;;;;;;;;;;;;5100119;28;19919;-71
2021/08/24 02:44:57;;;;;;;;;;;;;;;;;;5101615;28;19919;-72
2021/08/24 02:47:42;;;;;;;;;;;;;;;;;;5082145;28;19924;-72
2021/08/24 02:50:26;;;;;;;;;;;;;;;;;;5092148;28;19919;-71
2021/08/24 02:53:10;;;;;;;;;;;;;;;;;;5094617;28;20386;-70
2021/08/24 02:55:56;;;;;;;;;;;;;;;;;;5102088;28;19919;-70
2021/08/24 02:58:41;;;;;;;;;;;;;;;;;;5101937;28;20164;-70
2021/08/24 03:01:25;;;;;;;;;;;;;;;;;;5099445;28;19919;-70
2021/08/24 03:04:10;;;;;;;;;;;;;;;;;;5099519;28;19919;-71
2021/08/24 03:06:55;;;;;;;;;;;;;;;;;;5097042;28;20387;-70
2021/08/24 03:09:39;;;;;;;;;;;;;;;;;;5101876;28;19935;-71
2021/08/24 03:12:24;;;;;;;;;;;;;;;;;;5099128;28;19924;-70
2021/08/24 03:15:08;;;;;;;;;;;;;;;;;;5094633;28;19923;-69
2021/08/24 03:17:54;;;;;;;;;;;;;;;;;;5101899;28;19919;-70
2021/08/24 03:20:38;;;;;;;;;;;;;;;;;;5081315;28;19919;-69
2021/08/24 03:23:23;;;;;;;;;;;;;;;;;;5093663;28;19919;-71
2021/08/24 03:26:07;;;;;;;;;;;;;;;;;;5097352;28;19923;-71
2021/08/24 03:28:51;;;;;;;;;;;;;;;;;;5098965;28;20398;-71
2021/08/24 03:31:36;;;;;;;;;;;;;;;;;;5100820;28;19919;-70
2021/08/24 03:34:20;;;;;;;;;;;;;;;;;;5096451;28;19919;-71
2021/08/24 03:37:04;;;;;;;;;;;;;;;;;;5089658;28;19919;-71
2021/08/24 03:39:48;;;;;;;;;;;;;;;;;;5101587;28;19919;-71
2021/08/24 03:42:32;;;;;;;;;;;;;;;;;;5097757;28;19919;-70
2021/08/24 03:45:16;;;;;;;;;;;;;;;;;;5080530;28;19920;-71
2021/08/24 03:48:01;;;;;;;;;;;;;;;;;;5093527;28;19934;-71
2021/08/24 03:50:45;;;;;;;;;;;;;;;;;;5088720;28;19919;-71
2021/08/24 03:53:29;;;;;;;;;;;;;;;;;;5093244;28;19924;-70
2021/08/24 03:56:13;;;;;;;;;;;;;;;;;;5097750;28;19919;-71
2021/08/24 03:58:58;;;;;;;;;;;;;;;;;;5096639;28;19919;-72
2021/08/24 04:01:42;;;;;;;;;;;;;;;;;;5075591;28;19919;-71
2021/08/24 04:04:26;;;;;;;;;;;;;;;;;;5098770;28;19919;-71
2021/08/24 04:07:11;;;;;;;;;;;;;;;;;;5097022;28;19923;-72
2021/08/24 04:09:55;;;;;;;;;;;;;;;;;;5095505;28;19986;-71
2021/08/24 04:12:39;;;;;;;;;;;;;;;;;;5094602;28;19924;-71
2021/08/24 04:15:23;;;;;;;;;;;;;;;;;;5098181;28;19927;-68
2021/08/24 04:18:08;;;;;;;;;;;;;;;;;;5100705;28;19919;-68
2021/08/24 04:20:52;;;;;;;;;;;;;;;;;;5099376;28;20407;-70
2021/08/24 04:23:36;;;;;;;;;;;;;;;;;;5085293;28;19927;-70
2021/08/24 04:26:20;;;;;;;;;;;;;;;;;;5094801;28;19924;-70
2021/08/24 04:29:05;;;;;;;;;;;;;;;;;;5099946;28;19920;-70
2021/08/24 04:31:49;;;;;;;;;;;;;;;;;;5095675;28;19923;-68
2021/08/24 04:34:33;;;;;;;;;;;;;;;;;;5080100;28;19970;-69
2021/08/24 04:37:18;;;;;;;;;;;;;;;;;;5074000;28;19919;-70
2021/08/24 04:40:02;;;;;;;;;;;;;;;;;;5089060;28;19919;-69
2021/08/24 04:42:46;;;;;;;;;;;;;;;;;;5094003;28;20402;-71
2021/08/24 04:45:30;;;;;;;;;;;;;;;;;;5094288;28;19919;-69
2021/08/24 04:48:14;;;;;;;;;;;;;;;;;;5096061;28;19920;-71
2021/08/24 04:50:59;;;;;;;;;;;;;;;;;;5099607;28;19945;-70
2021/08/24 04:53:43;;;;;;;;;;;;;;;;;;5093574;28;19923;-69
2021/08/24 04:56:27;;;;;;;;;;;;;;;;;;5098407;28;19920;-70
2021/08/24 04:59:11;;;;;;;;;;;;;;;;;;5098059;28;20398;-70
2021/08/24 05:01:56;;;;;;;;;;;;;;;;;;5093906;28;19919;-69
2021/08/24 05:04:40;;;;;;;;;;;;;;;;;;5099857;28;19919;-68
2021/08/24 05:07:24;;;;;;;;;;;;;;;;;;5099867;28;19919;-69
2021/08/24 05:10:08;;;;;;;;;;;;;;;;;;5092972;28;19919;-69
2021/08/24 05:12:53;;;;;;;;;;;;;;;;;;5095621;28;20344;-69
2021/08/24 05:15:37;;;;;;;;;;;;;;;;;;5099500;28;19919;-69
2021/08/24 05:18:22;;;;;;;;;;;;;;;;;;5095077;28;19919;-69
2021/08/24 05:21:06;;;;;;;;;;;;;;;;;;5098916;28;20291;-70
2021/08/24 05:23:52;;;;;;;;;;;;;;;;;;5092631;28;19934;-69
2021/08/24 05:26:36;;;;;;;;;;;;;;;;;;5096289;28;19930;-69
2021/08/24 05:29:21;;;;;;;;;;;;;;;;;;5099332;28;19919;-69
2021/08/24 05:32:05;;;;;;;;;;;;;;;;;;5088609;28;19919;-69
2021/08/24 05:34:50;;;;;;;;;;;;;;;;;;5094657;28;19919;-69
2021/08/24 05:37:34;;;;;;;;;;;;;;;;;;5086747;28;19920;-69
2021/08/24 05:40:18;;;;;;;;;;;;;;;;;;5095119;28;19923;-69
2021/08/24 05:43:03;;;;;;;;;;;;;;;;;;5083441;28;19919;-70
2021/08/24 05:45:47;;;;;;;;;;;;;;;;;;5097175;28;19919;-70
2021/08/24 05:48:31;;;;;;;;;;;;;;;;;;5098938;28;19923;-70
2021/08/24 05:51:16;;;;;;;;;;;;;;;;;;5092302;28;19919;-69
2021/08/24 05:54:00;;;;;;;;;;;;;;;;;;5093687;28;19923;-72
2021/08/24 05:56:46;;;;;;;;;;;;;;;;;;5093519;28;19919;-73
2021/08/24 05:59:31;;;;;;;;;;;;;;;;;;5099205;28;19919;-72
2021/08/24 06:02:15;;;;;;;;;;;;;;;;;;5093312;28;19920;-72
2021/08/24 06:04:59;;;;;;;;;;;;;;;;;;5078882;28;19920;-72
2021/08/24 06:07:43;;;;;;;;;;;;;;;;;;5078702;28;19919;-72
2021/08/24 06:10:27;;;;;;;;;;;;;;;;;;5078804;28;19919;-71
2021/08/24 06:13:11;;;;;;;;;;;;;;;;;;5073902;28;20315;-72
2021/08/24 06:15:55;;;;;;;;;;;;;;;;;;5078690;28;19927;-72
2021/08/24 06:18:40;;;;;;;;;;;;;;;;;;5078781;28;19919;-72
2021/08/24 06:21:24;;;;;;;;;;;;;;;;;;5078596;28;20387;-72
2021/08/24 06:24:08;;;;;;;;;;;;;;;;;;5078697;28;19935;-69
2021/08/24 06:26:52;;;;;;;;;;;;;;;;;;5074502;28;19928;-71
2021/08/24 06:29:36;;;;;;;;;;;;;;;;;;5078609;28;20311;-72
2021/08/24 06:32:21;;;;;;;;;;;;;;;;;;5093517;28;19927;-72
2021/08/24 06:35:06;;;;;;;;;;;;;;;;;;5098801;28;19919;-70
2021/08/24 06:37:50;;;;;;;;;;;;;;;;;;5098727;28;19919;-71
2021/08/24 06:40:34;;;;;;;;;;;;;;;;;;5098571;28;19919;-72
2021/08/24 06:43:18;;;;;;;;;;;;;;;;;;5096526;28;20404;-71
2021/08/24 06:46:02;;;;;;;;;;;;;;;;;;5099814;28;19939;-72
2021/08/24 06:48:46;;;;;;;;;;;;;;;;;;5102464;28;19919;-72
2021/08/24 06:51:30;;;;;;;;;;;;;;;;;;5099212;28;19919;-72
2021/08/24 06:54:15;;;;;;;;;;;;;;;;;;5097129;28;19927;-74
2021/08/24 06:56:59;;;;;;;;;;;;;;;;;;5080508;28;20403;-74
2021/08/24 06:59:43;;;;;;;;;;;;;;;;;;5099109;28;19919;-74
2021/08/24 07:02:28;;;;;;;;;;;;;;;;;;5094614;28;19919;-74
2021/08/24 07:05:12;;;;;;;;;;;;;;;;;;5093783;28;19923;-74
2021/08/24 07:07:56;;;;;;;;;;;;;;;;;;5098110;28;19919;-74
2021/08/24 07:10:40;;;;;;;;;;;;;;;;;;5097044;28;19927;-74
2021/08/24 07:13:27;;;;;;;;;;;;;;;;;;5095635;28;19986;-74
2021/08/24 07:16:13;;;;;;;;;;;;;;;;;;5097972;28;20291;-74
2021/08/24 07:18:57;;;;;;;;;;;;;;;;;;5096653;28;19920;-74
2021/08/24 07:21:41;;;;;;;;;;;;;;;;;;5094870;28;19923;-74
2021/08/24 07:24:26;;;;;;;;;;;;;;;;;;5094135;28;19915;-74
2021/08/24 07:27:11;;;;;;;;;;;;;;;;;;5094190;28;19923;-75
2021/08/24 07:29:55;;;;;;;;;;;;;;;;;;5094457;28;20292;-74
2021/08/24 07:32:39;;;;;;;;;;;;;;;;;;5096663;28;19927;-74
2021/08/24 07:35:23;;;;;;;;;;;;;;;;;;5097430;28;19927;-74
2021/08/24 07:38:07;;;;;;;;;;;;;;;;;;5093539;28;20391;-74
2021/08/24 07:40:51;;;;;;;;;;;;;;;;;;5097717;28;19935;-74
2021/08/24 07:43:35;;;;;;;;;;;;;;;;;;5093458;28;19919;-74
2021/08/24 07:46:20;;;;;;;;;;;;;;;;;;5095520;28;19927;-74
2021/08/24 07:49:05;;;;;;;;;;;;;;;;;;5094660;28;19919;-74
2021/08/24 07:51:49;;;;;;;;;;;;;;;;;;5095580;28;20296;-74
2021/08/24 07:54:33;;;;;;;;;;;;;;;;;;5093977;28;19924;-75
2021/08/24 07:57:17;;;;;;;;;;;;;;;;;;5092882;28;20403;-73
2021/08/24 08:00:01;;;;;;;;;;;;;;;;;;5097819;28;20046;-74
2021/08/24 08:02:56;;;;;;;;;;;;;;;;;;5092180;28;19919;-74
2021/08/24 08:05:40;;;;;;;;;;;;;;;;;;5093202;28;19935;-74
2021/08/24 08:08:25;;;;;;;;;;;;;;;;;;5098201;28;19919;-74
2021/08/24 08:11:09;;;;;;;;;;;;;;;;;;5093468;28;19920;-74
2021/08/24 08:13:53;;;;;;;;;;;;;;;;;;5091467;28;19923;-74
2021/08/24 08:16:37;;;;;;;;;;;;;;;;;;5097077;28;19919;-74
2021/08/24 08:19:21;;;;;;;;;;;;;;;;;;5095967;28;20058;-73
2021/08/24 08:22:06;;;;;;;;;;;;;;;;;;5094246;28;19935;-74
2021/08/24 08:24:50;;;;;;;;;;;;;;;;;;5096475;28;19947;-74
2021/08/24 08:27:34;;;;;;;;;;;;;;;;;;5092115;28;20386;-74
2021/08/24 08:30:19;;;;;;;;;;;;;;;;;;5093784;28;19918;-73
2021/08/24 08:33:03;;;;;;;;;;;;;;;;;;5094719;28;19939;-74
2021/08/24 08:35:47;;;;;;;;;;;;;;;;;;5096944;28;19919;-73
2021/08/24 08:38:31;;;;;;;;;;;;;;;;;;5092682;28;20422;-73
2021/08/24 08:41:16;;;;;;;;;;;;;;;;;;5097096;28;20418;-73
2021/08/24 08:44:00;;;;;;;;;;;;;;;;;;5096247;28;19935;-74
2021/08/24 08:46:44;;;;;;;;;;;;;;;;;;5094819;28;19935;-73
2021/08/24 08:49:28;;;;;;;;;;;;;;;;;;5093063;28;19919;-74
2021/08/24 08:52:13;;;;;;;;;;;;;;;;;;5094470;28;19923;-73
2021/08/24 08:54:57;;;;;;;;;;;;;;;;;;5093568;28;19919;-73
2021/08/24 08:57:41;;;;;;;;;;;;;;;;;;5092665;28;19935;-74
2021/08/24 09:00:25;;;;;;;;;;;;;;;;;;5097056;28;19919;-74
2021/08/24 09:03:09;;;;;;;;;;;;;;;;;;5091862;28;19927;-74
2021/08/24 09:05:53;;;;;;;;;;;;;;;;;;5090458;28;19919;-74
2021/08/24 09:08:39;;;;;;;;;;;;;;;;;;5096053;28;19920;-74
2021/08/24 09:11:24;;;;;;;;;;;;;;;;;;5094985;28;19927;-74
2021/08/24 09:14:09;;;;;;;;;;;;;;;;;;5093833;28;19923;-73
2021/08/24 09:16:53;;;;;;;;;;;;;;;;;;5090218;28;19919;-74
2021/08/24 09:19:37;;;;;;;;;;;;;;;;;;5094104;28;19935;-74
2021/08/24 09:22:21;;;;;;;;;;;;;;;;;;5092670;28;19919;-74
2021/08/24 09:25:07;;;;;;;;;;;;;;;;;;5091784;28;19920;-74
2021/08/24 09:27:52;;;;;;;;;;;;;;;;;;5093481;28;19931;-74
2021/08/24 09:30:36;;;;;;;;;;;;;;;;;;5091909;28;19920;-74
2021/08/24 09:33:20;;;;;;;;;;;;;;;;;;5090618;28;19923;-74
2021/08/24 09:36:04;;;;;;;;;;;;;;;;;;5095298;28;19923;-74
2021/08/24 09:38:48;;;;;;;;;;;;;;;;;;5094285;28;19919;-75
2021/08/24 09:41:33;;;;;;;;;;;;;;;;;;5089888;28;19920;-74
2021/08/24 09:44:18;;;;;;;;;;;;;;;;;;5094760;28;19915;-75
2021/08/24 09:47:02;;;;;;;;;;;;;;;;;;5093623;28;20319;-74
2021/08/24 09:49:46;;;;;;;;;;;;;;;;;;5092440;28;20279;-75
2021/08/24 09:52:31;;;;;;;;;;;;;;;;;;5091905;28;19927;-74
2021/08/24 09:55:15;;;;;;;;;;;;;;;;;;5093648;28;19919;-74
2021/08/24 09:58:00;;;;;;;;;;;;;;;;;;5093648;28;19935;-74
2021/08/24 10:00:44;;;;;;;;;;;;;;;;;;5095136;28;19923;-75
2021/08/24 10:03:28;;;;;;;;;;;;;;;;;;5089763;28;19919;-75
2021/08/24 10:06:12;;;;;;;;;;;;;;;;;;5087278;28;19923;-70
2021/08/24 10:08:57;;;;;;;;;;;;;;;;;;5083851;28;19920;-73
2021/08/24 10:11:42;;;;;;;;;;;;;;;;;;5094731;28;19923;-74
2021/08/24 10:14:26;;;;;;;;;;;;;;;;;;5091043;28;19923;-73
2021/08/24 10:17:10;;;;;;;;;;;;;;;;;;5096750;28;20398;-73
2021/08/24 10:19:56;;;;;;;;;;;;;;;;;;5098438;28;19935;-73
2021/08/24 10:22:42;;;;;;;;;;;;;;;;;;5097059;28;19923;-73
2021/08/24 10:25:26;;;;;;;;;;;;;;;;;;5096600;28;19938;-74
2021/08/24 10:28:10;;;;;;;;;;;;;;;;;;5098056;28;19924;-74
2021/08/24 10:30:54;;;;;;;;;;;;;;;;;;5096506;28;19919;-74
2021/08/24 10:33:39;;;;;;;;;;;;;;;;;;5095162;28;19923;-73
2021/08/24 10:36:23;;;;;;;;;;;;;;;;;;5096893;28;20299;-73
2021/08/24 10:39:07;;;;;;;;;;;;;;;;;;5095611;28;19926;-74
2021/08/24 10:41:52;;;;;;;;;;;;;;;;;;5093861;28;19935;-74
2021/08/24 10:44:36;;;;;;;;;;;;;;;;;;5098254;28;19919;-73
2021/08/24 10:47:20;;;;;;;;;;;;;;;;;;5097570;28;20291;-73
2021/08/24 10:50:04;;;;;;;;;;;;;;;;;;5093450;28;19920;-74
2021/08/24 10:52:49;;;;;;;;;;;;;;;;;;5097906;28;19923;-73
2021/08/24 10:55:33;;;;;;;;;;;;;;;;;;5096987;28;19919;-74
2021/08/24 10:58:17;;;;;;;;;;;;;;;;;;5095851;28;20311;-73
2021/08/24 11:01:02;;;;;;;;;;;;;;;;;;5099863;28;19918;-73
2021/08/24 11:03:46;;;;;;;;;;;;;;;;;;5092735;28;19919;-73
2021/08/24 11:06:31;;;;;;;;;;;;;;;;;;5095116;28;19920;-73
2021/08/24 11:09:16;;;;;;;;;;;;;;;;;;5096734;28;19919;-72
2021/08/24 11:12:00;;;;;;;;;;;;;;;;;;5099628;28;20322;-72
2021/08/24 11:14:45;;;;;;;;;;;;;;;;;;5094264;28;19923;-73
2021/08/24 11:17:29;;;;;;;;;;;;;;;;;;5093059;28;19930;-73
2021/08/24 11:20:14;;;;;;;;;;;;;;;;;;5097307;28;19919;-73
2021/08/24 11:22:59;;;;;;;;;;;;;;;;;;5095780;28;19927;-72
2021/08/24 11:25:44;;;;;;;;;;;;;;;;;;5089427;28;19919;-74
2021/08/24 11:28:28;;;;;;;;;;;;;;;;;;5095653;28;20402;-74
2021/08/24 11:31:14;;;;;;;;;;;;;;;;;;5095566;28;19919;-73
2021/08/24 11:33:58;;;;;;;;;;;;;;;;;;5088780;28;19938;-74
2021/08/24 11:36:43;;;;;;;;;;;;;;;;;;5099023;28;19934;-74
2021/08/24 11:39:27;;;;;;;;;;;;;;;;;;5097461;28;20394;-74
2021/08/24 11:42:11;;;;;;;;;;;;;;;;;;5093494;28;19919;-73
2021/08/24 11:44:55;;;;;;;;;;;;;;;;;;5098114;28;19920;-73
2021/08/24 11:47:39;;;;;;;;;;;;;;;;;;5093602;28;19920;-74
2021/08/24 11:50:25;;;;;;;;;;;;;;;;;;5092625;28;19920;-74
2021/08/24 11:53:09;;;;;;;;;;;;;;;;;;5093999;28;19924;-74
2021/08/24 11:55:56;;;;;;;;;;;;;;;;;;5095896;28;19923;-73
2021/08/24 11:58:40;;;;;;;;;;;;;;;;;;5094891;28;19924;-74
2021/08/24 12:01:27;;;;;;;;;;;;;;;;;;5096529;28;19945;-74
2021/08/24 12:04:11;;;;;;;;;;;;;;;;;;5095739;28;19919;-74
2021/08/24 12:06:55;;;;;;;;;;;;;;;;;;5094380;28;19920;-74
2021/08/24 12:09:39;;;;;;;;;;;;;;;;;;5093494;28;19919;-73
2021/08/24 12:12:24;;;;;;;;;;;;;;;;;;5094388;28;19935;-72
2021/08/24 12:15:08;;;;;;;;;;;;;;;;;;5093252;28;19931;-73
2021/08/24 12:17:52;;;;;;;;;;;;;;;;;;5091667;28;19923;-75
2021/08/24 12:20:39;;;;;;;;;;;;;;;;;;5098008;28;20317;-71
2021/08/24 12:23:23;;;;;;;;;;;;;;;;;;5095487;28;20394;-73
2021/08/24 12:26:07;;;;;;;;;;;;;;;;;;5093932;28;20390;-74
2021/08/24 12:28:51;;;;;;;;;;;;;;;;;;5098225;28;19935;-72
2021/08/24 12:31:35;;;;;;;;;;;;;;;;;;5096016;28;19983;-74
2021/08/24 12:34:19;;;;;;;;;;;;;;;;;;5099990;28;19919;-73
2021/08/24 12:37:04;;;;;;;;;;;;;;;;;;5098479;28;19919;-74
2021/08/24 12:39:48;;;;;;;;;;;;;;;;;;5096365;28;19919;-73
2021/08/24 12:42:32;;;;;;;;;;;;;;;;;;5093364;28;19919;-73
2021/08/24 12:45:16;;;;;;;;;;;;;;;;;;5078434;28;19919;-73
2021/08/24 12:48:00;;;;;;;;;;;;;;;;;;5076206;28;19935;-73
2021/08/24 12:50:44;;;;;;;;;;;;;;;;;;5074425;28;19919;-74
2021/08/24 12:53:28;;;;;;;;;;;;;;;;;;5074059;28;19931;-74
2021/08/24 12:56:13;;;;;;;;;;;;;;;;;;5073327;28;20399;-74
2021/08/24 12:59:02;;;;;;;;;;;;;;;;;;5079661;28;19920;-74
2021/08/24 13:01:46;;;;;;;;;;;;;;;;;;5078265;28;20399;-73
2021/08/24 13:04:34;;;;;;;;;;;;;;;;;;5079625;28;19917;-74
2021/08/24 13:07:19;;;;;;;;;;;;;;;;;;5074475;28;19919;-73
2021/08/24 13:10:03;;;;;;;;;;;;;;;;;;5078525;28;19926;-73
2021/08/24 13:12:47;;;;;;;;;;;;;;;;;;5075396;28;19920;-73
2021/08/24 13:15:34;;;;;;;;;;;;;;;;;;5074639;28;20391;-73
2021/08/24 13:18:18;;;;;;;;;;;;;;;;;;5078476;28;19919;-74
2021/08/24 13:21:03;;;;;;;;;;;;;;;;;;5079156;28;19934;-74
2021/08/24 13:23:47;;;;;;;;;;;;;;;;;;5072708;28;19919;-73
2021/08/24 13:26:32;;;;;;;;;;;;;;;;;;5072761;28;19927;-74
2021/08/24 13:29:18;;;;;;;;;;;;;;;;;;5076960;28;20276;-74
2021/08/24 13:32:03;;;;;;;;;;;;;;;;;;5074855;28;19939;-74
2021/08/24 13:34:47;;;;;;;;;;;;;;;;;;5078594;28;19939;-74
2021/08/24 13:37:32;;;;;;;;;;;;;;;;;;5077064;28;19971;-74
2021/08/24 13:40:16;;;;;;;;;;;;;;;;;;5074858;28;19920;-74
2021/08/24 13:43:00;;;;;;;;;;;;;;;;;;5074741;28;20292;-74
2021/08/24 13:45:44;;;;;;;;;;;;;;;;;;5077727;28;19920;-73
2021/08/24 13:48:29;;;;;;;;;;;;;;;;;;5079045;28;20281;-74
2021/08/24 13:51:13;;;;;;;;;;;;;;;;;;5073278;28;19925;-73
2021/08/24 13:53:57;;;;;;;;;;;;;;;;;;5078891;28;19923;-73
2021/08/24 13:56:42;;;;;;;;;;;;;;;;;;5075658;28;19923;-73
2021/08/24 13:59:26;;;;;;;;;;;;;;;;;;5073859;28;19918;-74
2021/08/24 14:02:10;;;;;;;;;;;;;;;;;;5076699;28;19923;-74
2021/08/24 14:04:54;;;;;;;;;;;;;;;;;;5075727;28;19919;-73
2021/08/24 14:07:39;;;;;;;;;;;;;;;;;;5074176;28;20399;-73
2021/08/24 14:10:23;;;;;;;;;;;;;;;;;;5071948;28;19928;-73
2021/08/24 14:13:08;;;;;;;;;;;;;;;;;;5071908;28;19919;-74
2021/08/24 14:15:52;;;;;;;;;;;;;;;;;;5074283;28;19920;-74
2021/08/24 14:18:36;;;;;;;;;;;;;;;;;;5072516;28;19920;-74
2021/08/24 14:21:20;;;;;;;;;;;;;;;;;;5076098;28;19919;-74
2021/08/24 14:24:05;;;;;;;;;;;;;;;;;;5074603;28;19935;-74
2021/08/24 14:26:48;;;;;;;;;;;;;;;;;;5072700;28;20407;-74
2021/08/24 14:29:34;;;;;;;;;;;;;;;;;;5090120;28;19923;-73
2021/08/24 14:32:18;;;;;;;;;;;;;;;;;;5094753;28;20291;-74
2021/08/24 14:35:03;;;;;;;;;;;;;;;;;;5091847;28;19934;-74
2021/08/24 14:37:47;;;;;;;;;;;;;;;;;;5097766;28;20434;-73
2021/08/24 14:40:31;;;;;;;;;;;;;;;;;;5094864;28;19935;-74
2021/08/24 14:43:15;;;;;;;;;;;;;;;;;;5088859;28;20398;-74
2021/08/24 14:45:59;;;;;;;;;;;;;;;;;;5096176;28;19935;-73
2021/08/24 14:48:44;;;;;;;;;;;;;;;;;;5095363;28;19927;-74
2021/08/24 14:51:29;;;;;;;;;;;;;;;;;;5092467;28;19920;-73
2021/08/24 14:54:16;;;;;;;;;;;;;;;;;;5091105;28;20410;-73
2021/08/24 14:57:01;;;;;;;;;;;;;;;;;;5092466;28;19924;-74
2021/08/24 14:59:45;;;;;;;;;;;;;;;;;;5089604;28;19927;-72
2021/08/24 15:02:29;;;;;;;;;;;;;;;;;;5091007;28;19919;-73
2021/08/24 15:05:13;;;;;;;;;;;;;;;;;;5095553;28;19923;-72
2021/08/24 15:07:57;;;;;;;;;;;;;;;;;;5095424;28;19927;-72
2021/08/24 15:10:41;;;;;;;;;;;;;;;;;;5093805;28;20414;-72
2021/08/24 15:13:26;;;;;;;;;;;;;;;;;;5094571;28;20296;-72
2021/08/24 15:16:10;;;;;;;;;;;;;;;;;;5094067;28;19919;-73
2021/08/24 15:18:55;;;;;;;;;;;;;;;;;;5092520;28;20386;-73
2021/08/24 15:21:39;;;;;;;;;;;;;;;;;;5097520;28;19923;-72
2021/08/24 15:24:23;;;;;;;;;;;;;;;;;;5089432;28;19923;-73
2021/08/24 15:27:07;;;;;;;;;;;;;;;;;;5091368;28;19930;-73
2021/08/24 15:29:51;;;;;;;;;;;;;;;;;;5096312;28;19920;-73
2021/08/24 15:32:36;;;;;;;;;;;;;;;;;;5095374;28;19936;-72
2021/08/24 15:35:20;;;;;;;;;;;;;;;;;;5086670;28;19939;-73
2021/08/24 15:38:04;;;;;;;;;;;;;;;;;;5094306;28;19935;-74
2021/08/24 15:40:48;;;;;;;;;;;;;;;;;;5097580;28;20374;-74
2021/08/24 15:43:34;;;;;;;;;;;;;;;;;;5092822;28;19919;-73
2021/08/24 15:46:20;;;;;;;;;;;;;;;;;;5092720;28;20390;-73
2021/08/24 15:49:04;;;;;;;;;;;;;;;;;;5094714;28;19935;-73
2021/08/24 15:51:49;;;;;;;;;;;;;;;;;;5095692;28;19919;-73
2021/08/24 15:54:33;;;;;;;;;;;;;;;;;;5091828;28;19931;-73
2021/08/24 15:57:18;;;;;;;;;;;;;;;;;;5095451;28;19919;-73
2021/08/24 16:00:02;;;;;;;;;;;;;;;;;;5097644;28;19919;-73
2021/08/24 16:02:55;;;;;;;;;;;;;;;;;;5090848;28;19943;-73
2021/08/24 16:05:39;;;;;;;;;;;;;;;;;;5095861;28;19920;-73
2021/08/24 16:08:24;;;;;;;;;;;;;;;;;;5095288;28;20271;-73
2021/08/24 16:11:08;;;;;;;;;;;;;;;;;;5091385;28;19919;-72
2021/08/24 16:13:52;;;;;;;;;;;;;;;;;;5090731;28;19923;-71
2021/08/24 16:16:36;;;;;;;;;;;;;;;;;;5093287;28;19919;-72
2021/08/24 16:19:22;;;;;;;;;;;;;;;;;;5092570;28;20018;-72
2021/08/24 16:22:06;;;;;;;;;;;;;;;;;;5096895;28;19935;-73
2021/08/24 16:24:51;;;;;;;;;;;;;;;;;;5095718;28;19927;-73
2021/08/24 16:27:35;;;;;;;;;;;;;;;;;;5089071;28;20299;-73
2021/08/24 16:30:19;;;;;;;;;;;;;;;;;;5096887;28;19919;-71
2021/08/24 16:33:03;;;;;;;;;;;;;;;;;;5093757;28;20418;-73
2021/08/24 16:35:47;;;;;;;;;;;;;;;;;;5094344;28;19923;-71
2021/08/24 16:38:32;;;;;;;;;;;;;;;;;;5095615;28;19935;-73
2021/08/24 16:41:16;;;;;;;;;;;;;;;;;;5092102;28;19919;-73
2021/08/24 16:44:00;;;;;;;;;;;;;;;;;;5093494;28;19919;-73
2021/08/24 16:46:44;;;;;;;;;;;;;;;;;;5093829;28;19923;-71
2021/08/24 16:49:29;;;;;;;;;;;;;;;;;;5093475;28;19919;-73
2021/08/24 16:52:13;;;;;;;;;;;;;;;;;;5091705;28;19919;-73
2021/08/24 16:54:57;;;;;;;;;;;;;;;;;;5091268;28;19927;-73
2021/08/24 16:57:42;;;;;;;;;;;;;;;;;;5088174;28;19923;-73
2021/08/24 17:00:26;;;;;;;;;;;;;;;;;;5094283;28;19919;-71
2021/08/24 17:03:10;;;;;;;;;;;;;;;;;;5089974;28;19920;-72
2021/08/24 17:05:54;;;;;;;;;;;;;;;;;;5095037;28;19919;-72
2021/08/24 17:08:39;;;;;;;;;;;;;;;;;;5093423;28;19920;-71
2021/08/24 17:11:23;;;;;;;;;;;;;;;;;;5092008;28;19923;-71
2021/08/24 17:14:08;;;;;;;;;;;;;;;;;;5095842;28;19923;-72
2021/08/24 17:16:52;;;;;;;;;;;;;;;;;;5093161;28;19918;-73
2021/08/24 17:19:36;;;;;;;;;;;;;;;;;;5091756;28;19919;-73
2021/08/24 17:22:20;;;;;;;;;;;;;;;;;;5095100;28;19934;-73
2021/08/24 17:25:04;;;;;;;;;;;;;;;;;;5094926;28;19986;-73
2021/08/24 17:27:48;;;;;;;;;;;;;;;;;;5091224;28;19987;-73
2021/08/24 17:30:32;;;;;;;;;;;;;;;;;;5095333;28;19919;-73
2021/08/24 17:33:17;;;;;;;;;;;;;;;;;;5090200;28;19919;-73
2021/08/24 17:36:01;;;;;;;;;;;;;;;;;;5093210;28;19919;-73
2021/08/24 17:38:45;;;;;;;;;;;;;;;;;;5097181;28;19927;-72
2021/08/24 17:41:29;;;;;;;;;;;;;;;;;;5095758;28;19919;-73
2021/08/24 17:44:13;;;;;;;;;;;;;;;;;;5091888;28;20469;-70
2021/08/24 17:47:01;;;;;;;;;;;;;;;;;;5090747;28;19927;-71
2021/08/24 17:49:58;;;;;;;;;;;;;;;;;;5091774;28;19919;-72
2021/08/24 17:52:42;;;;;;;;;;;;;;;;;;5092638;28;19923;-72
2021/08/24 17:55:27;;;;;;;;;;;;;;;;;;5097352;28;19923;-72
2021/08/24 17:58:11;;;;;;;;;;;;;;;;;;5091861;28;19919;-72
2021/08/24 18:00:55;;;;;;;;;;;;;;;;;;5091381;28;19920;-72
2021/08/24 18:03:40;;;;;;;;;;;;;;;;;;5080117;28;20398;-72
2021/08/24 18:06:31;;;;;;;;;;;;;;;;;;5093429;28;20407;-72
2021/08/24 18:09:16;;;;;;;;;;;;;;;;;;5084293;28;19919;-72
2021/08/24 18:12:01;;;;;;;;;;;;;;;;;;5090564;28;19982;-72
2021/08/24 18:14:45;;;;;;;;;;;;;;;;;;5089693;28;19939;-72
2021/08/24 18:17:29;;;;;;;;;;;;;;;;;;5090428;28;19935;-72
2021/08/24 18:20:13;;;;;;;;;;;;;;;;;;5093776;28;20284;-73
2021/08/24 18:22:58;;;;;;;;;;;;;;;;;;5091377;28;19927;-73
2021/08/24 18:25:42;;;;;;;;;;;;;;;;;;5091255;28;19923;-72
2021/08/24 18:28:27;;;;;;;;;;;;;;;;;;5093787;28;19923;-72
2021/08/24 18:31:11;;;;;;;;;;;;;;;;;;5094381;28;19919;-72
2021/08/24 18:33:56;;;;;;;;;;;;;;;;;;5084995;28;20299;-72
2021/08/24 18:36:40;;;;;;;;;;;;;;;;;;5092494;28;19919;-72
2021/08/24 18:39:25;;;;;;;;;;;;;;;;;;5097130;28;19920;-73
2021/08/24 18:42:09;;;;;;;;;;;;;;;;;;5092825;28;19919;-73